Terminal Aerodrome Forecast
Issued by NWS Memphis, TN

Home | Current Version | Previous Version | Text Only | Print | Product List | Glossary On
Versions: 1 2 3 4 5 6 7 8 9 10 11 12
000
FTUS44 KMEG 022329
TAFMKL
TAF
KMKL 022329Z 0300/0324 00000KT P6SM SCT250
      TEMPO 0309/0312 3SM BR
     FM031400 24006KT P6SM SKC
     FM031800 26007KT P6SM FEW050=

USA.gov is the U.S. government's official web portal to all federal, state and local government web resources and services.